Time;durP1;ratioP1;P1;durP2;ratioP2;P2;SDS_P1;SDS_P2;PMS_P1;PMS_P2;Temp;Humidity;BMP_temperature;BMP_pressure;BME280_temperature;BME280_humidity;BME280_pressure;Samples;Min_cycle;Max_cycle;Signal;HPM_P1;HPM_P2
2021/04/05 00:00:03;;;;;;;8.73;6.27;;;4.90;98.20;;;;;;4975251;28;20655;-83
2021/04/05 00:02:29;;;;;;;6.10;5.50;;;4.80;97.80;;;;;;4989739;28;20493;-83
2021/04/05 00:04:54;;;;;;;6.90;5.93;;;4.80;98.10;;;;;;4974372;28;20632;-82
2021/04/05 00:07:20;;;;;;;7.50;5.70;;;4.70;98.20;;;;;;4987436;28;20224;-83
2021/04/05 00:09:46;;;;;;;5.93;5.33;;;4.70;98.20;;;;;;4989932;28;20305;-83
2021/04/05 00:12:12;;;;;;;7.87;5.43;;;4.80;98.20;;;;;;4991048;28;20194;-83
2021/04/05 00:14:39;;;;;;;7.80;5.93;;;4.80;98.30;;;;;;4977182;28;20213;-83
2021/04/05 00:17:05;;;;;;;7.07;5.57;;;4.80;98.10;;;;;;4983755;28;20503;-83
2021/04/05 00:19:32;;;;;;;10.50;5.83;;;4.70;98.30;;;;;;4989269;28;20447;-83
2021/04/05 00:21:58;;;;;;;10.40;6.13;;;4.70;98.60;;;;;;4971034;28;20284;-83
2021/04/05 00:24:24;;;;;;;6.40;5.30;;;4.60;98.80;;;;;;4978079;28;20460;-83
2021/04/05 00:26:49;;;;;;;6.50;5.13;;;4.60;98.90;;;;;;4981339;28;20208;-84
2021/04/05 00:29:15;;;;;;;6.20;5.60;;;4.60;99.00;;;;;;4991125;28;20278;-83
2021/04/05 00:31:41;;;;;;;10.73;5.60;;;4.60;99.00;;;;;;4977623;28;20635;-83
2021/04/05 00:34:06;;;;;;;6.73;5.23;;;4.50;99.30;;;;;;4973354;28;20671;-83
2021/04/05 00:36:32;;;;;;;8.53;5.60;;;4.40;99.30;;;;;;4991323;28;20256;-83
2021/04/05 00:38:58;;;;;;;6.67;5.70;;;4.40;99.60;;;;;;4983614;28;20193;-84
2021/04/05 00:41:25;;;;;;;6.57;5.33;;;4.30;99.80;;;;;;4987010;28;20283;-83
2021/04/05 00:43:52;;;;;;;12.33;6.73;;;4.30;99.90;;;;;;4996906;28;20562;-83
2021/04/05 00:46:23;;;;;;;8.10;5.60;;;4.40;99.90;;;;;;4994982;28;20463;-83
2021/04/05 00:48:50;;;;;;;7.83;6.33;;;4.30;99.90;;;;;;4994344;28;20452;-82
2021/04/05 00:51:21;;;;;;;8.63;5.93;;;4.20;99.90;;;;;;4979832;28;20459;-82
2021/04/05 00:53:48;;;;;;;7.07;6.37;;;4.30;99.90;;;;;;4983126;28;20461;-83
2021/04/05 00:56:16;;;;;;;7.70;6.77;;;4.20;99.90;;;;;;4974381;28;20479;-82
2021/04/05 00:58:42;;;;;;;8.27;5.80;;;4.10;99.90;;;;;;4996161;28;20431;-82
2021/04/05 01:01:10;;;;;;;6.30;5.67;;;4.20;99.90;;;;;;4996531;28;20935;-82
2021/04/05 01:03:39;;;;;;;8.30;6.20;;;4.20;99.90;;;;;;4975731;28;20432;-82
2021/04/05 01:06:12;;;;;;;7.17;5.93;;;4.10;99.90;;;;;;4972425;28;20802;-83
2021/04/05 01:08:38;;;;;;;8.17;6.10;;;4.00;99.90;;;;;;4991435;28;20456;-82
2021/04/05 01:11:06;;;;;;;7.17;6.33;;;3.90;99.90;;;;;;4979405;28;20453;-83
2021/04/05 01:13:31;;;;;;;6.70;5.50;;;3.80;99.90;;;;;;4988915;28;20471;-82
2021/04/05 01:15:57;;;;;;;8.97;6.70;;;3.80;99.90;;;;;;5000054;28;20988;-83
2021/04/05 01:18:23;;;;;;;7.93;5.73;;;3.80;99.90;;;;;;4980310;28;20235;-84
2021/04/05 01:20:49;;;;;;;7.30;6.00;;;3.80;99.90;;;;;;4996772;28;20920;-84
2021/04/05 01:23:20;;;;;;;8.00;6.07;;;3.70;99.90;;;;;;4994977;28;20221;-84
2021/04/05 01:25:48;;;;;;;11.90;5.60;;;3.60;99.90;;;;;;4980529;28;20541;-84
2021/04/05 01:28:14;;;;;;;8.20;5.83;;;3.60;99.90;;;;;;4974503;28;20463;-84
2021/04/05 01:30:42;;;;;;;7.13;6.00;;;3.60;99.90;;;;;;4965510;28;20440;-84
2021/04/05 01:33:18;;;;;;;7.30;5.97;;;3.60;99.90;;;;;;4975887;28;20554;-82
2021/04/05 01:35:44;;;;;;;9.30;6.20;;;3.50;99.90;;;;;;4979625;28;20999;-82
2021/04/05 01:38:12;;;;;;;6.20;5.00;;;3.40;99.90;;;;;;4981873;28;20449;-82
2021/04/05 01:40:40;;;;;;;8.17;5.53;;;3.50;99.90;;;;;;4991081;28;20635;-82
2021/04/05 01:43:10;;;;;;;7.73;5.37;;;3.50;99.90;;;;;;4979038;28;21278;-82
2021/04/05 01:45:36;;;;;;;7.20;5.43;;;3.50;99.90;;;;;;4986866;28;20474;-81
2021/04/05 01:48:04;;;;;;;6.20;5.40;;;3.40;99.90;;;;;;4991014;28;20590;-81
2021/04/05 01:50:31;;;;;;;8.00;6.17;;;3.30;99.90;;;;;;4996487;28;20192;-82
2021/04/05 01:53:02;;;;;;;8.40;6.10;;;3.30;99.90;;;;;;4994969;28;20457;-81
2021/04/05 01:55:28;;;;;;;6.10;5.00;;;3.30;99.90;;;;;;4993555;28;20475;-82
2021/04/05 01:57:53;;;;;;;6.53;5.10;;;3.30;99.90;;;;;;4976336;28;20988;-83
2021/04/05 02:00:24;;;;;;;9.00;5.63;;;3.40;99.90;;;;;;4994988;28;20451;-83
2021/04/05 02:02:50;;;;;;;6.27;5.33;;;3.50;99.90;;;;;;4992788;28;20196;-83
2021/04/05 02:05:17;;;;;;;7.70;5.63;;;3.60;99.90;;;;;;4971852;28;20827;-82
2021/04/05 02:07:43;;;;;;;8.03;5.53;;;3.70;99.90;;;;;;4967050;28;20547;-82
2021/04/05 02:10:18;;;;;;;6.03;5.17;;;3.60;99.90;;;;;;4981660;28;20448;-83
2021/04/05 02:12:45;;;;;;;8.77;6.20;;;3.60;99.90;;;;;;4994139;28;20438;-82
2021/04/05 02:15:13;;;;;;;9.47;5.23;;;3.60;99.90;;;;;;4997002;28;20705;-82
2021/04/05 02:17:39;;;;;;;6.87;5.60;;;3.50;99.90;;;;;;5001308;28;20813;-82
2021/04/05 02:20:09;;;;;;;10.03;5.97;;;3.50;99.90;;;;;;4981734;28;20826;-82
2021/04/05 02:22:50;;;;;;;8.47;5.10;;;3.50;99.90;;;;;;4963156;28;20474;-82
2021/04/05 02:25:21;;;;;;;9.63;5.60;;;3.40;99.90;;;;;;5016288;28;20462;-81
2021/04/05 02:27:50;;;;;;;5.67;5.17;;;3.30;99.90;;;;;;4980344;28;20451;-81
2021/04/05 02:30:22;;;;;;;8.30;6.13;;;3.40;99.90;;;;;;4981550;28;20447;-81
2021/04/05 02:33:05;;;;;;;9.07;6.50;;;3.40;99.90;;;;;;4993473;28;20541;-81
2021/04/05 02:35:33;;;;;;;5.80;5.20;;;3.30;99.90;;;;;;4997940;28;20479;-81
2021/04/05 02:38:02;;;;;;;7.47;5.50;;;3.30;99.90;;;;;;4961877;28;20441;-81
2021/04/05 02:40:29;;;;;;;7.03;5.20;;;3.20;99.90;;;;;;4974658;28;20918;-81
2021/04/05 02:42:56;;;;;;;6.20;5.13;;;3.20;99.90;;;;;;4975783;28;20456;-81
2021/04/05 02:45:24;;;;;;;7.07;5.40;;;3.20;99.90;;;;;;4980232;28;20945;-82
2021/04/05 02:47:53;;;;;;;9.07;5.90;;;3.30;99.90;;;;;;4990448;28;20485;-81
2021/04/05 02:50:22;;;;;;;6.10;5.50;;;3.30;99.90;;;;;;4979124;28;20513;-81
2021/04/05 02:52:48;;;;;;;5.73;5.23;;;3.30;99.90;;;;;;4995263;28;20914;-82
2021/04/05 02:55:15;;;;;;;6.83;5.20;;;3.30;99.90;;;;;;4992754;28;20481;-82
2021/04/05 02:57:43;;;;;;;6.17;5.53;;;3.30;99.90;;;;;;4979224;28;21000;-82
2021/04/05 03:00:12;;;;;;;5.90;5.20;;;3.30;99.90;;;;;;4965512;28;20445;-82
2021/04/05 03:02:38;;;;;;;11.30;5.33;;;3.30;99.90;;;;;;4982580;28;20605;-82
2021/04/05 03:05:08;;;;;;;10.40;5.90;;;3.30;99.90;;;;;;4967286;28;20449;-82
2021/04/05 03:07:35;;;;;;;7.60;5.50;;;3.20;99.90;;;;;;4995402;28;20513;-82
2021/04/05 03:10:06;;;;;;;6.70;5.80;;;3.20;99.90;;;;;;4966344;28;21177;-82
2021/04/05 03:12:35;;;;;;;7.47;5.40;;;3.20;99.90;;;;;;4981444;28;20481;-82
2021/04/05 03:15:06;;;;;;;7.20;5.33;;;3.20;99.90;;;;;;4976592;28;20480;-83
2021/04/05 03:17:34;;;;;;;8.10;5.53;;;3.30;99.90;;;;;;4991590;28;20440;-83
2021/04/05 03:20:02;;;;;;;8.17;5.70;;;3.20;99.90;;;;;;4995405;28;20457;-83
2021/04/05 03:22:28;;;;;;;8.37;6.50;;;3.10;99.90;;;;;;4974477;28;20972;-82
2021/04/05 03:24:59;;;;;;;8.07;6.83;;;3.10;99.90;;;;;;4991999;28;20469;-82
2021/04/05 03:27:27;;;;;;;8.50;5.90;;;3.10;99.90;;;;;;4983803;28;20189;-82
2021/04/05 03:29:55;;;;;;;6.50;5.60;;;3.10;99.90;;;;;;4982278;28;20465;-82
2021/04/05 03:32:23;;;;;;;11.20;4.87;;;3.10;99.90;;;;;;4979071;28;20451;-83
2021/04/05 03:34:55;;;;;;;7.40;4.90;;;3.10;99.90;;;;;;4968107;28;20487;-83
2021/04/05 03:37:22;;;;;;;7.43;5.27;;;3.10;99.90;;;;;;4963793;28;20953;-83
2021/04/05 03:39:51;;;;;;;6.53;5.60;;;3.10;99.90;;;;;;4986560;28;20503;-82
2021/04/05 03:43:01;;;;;;;8.07;5.33;;;3.10;99.90;;;;;;4969343;28;20877;-83
2021/04/05 03:45:53;;;;;;;9.00;5.50;;;3.10;99.90;;;;;;4933338;28;20505;-82
2021/04/05 03:48:27;;;;;;;6.53;4.67;;;3.30;99.90;;;;;;4919282;28;20441;-82
2021/04/05 03:51:15;;;;;;;6.13;4.60;;;3.40;99.90;;;;;;4963215;28;20535;-82
2021/04/05 03:53:54;;;;;;;5.43;4.43;;;3.50;99.90;;;;;;4990081;28;20561;-82
2021/04/05 03:56:25;;;;;;;7.43;5.00;;;3.60;99.90;;;;;;4972462;28;20602;-82
2021/04/05 03:58:54;;;;;;;6.30;4.50;;;3.50;99.90;;;;;;4972315;28;20497;-82
2021/04/05 04:01:25;;;;;;;8.20;5.43;;;3.50;99.90;;;;;;4973821;28;20813;-81
2021/04/05 04:04:06;;;;;;;7.37;5.40;;;3.40;99.90;;;;;;4987666;28;20441;-81
2021/04/05 04:06:39;;;;;;;7.00;4.97;;;3.30;99.90;;;;;;4970449;28;20447;-82
2021/04/05 04:09:06;;;;;;;6.87;5.53;;;3.30;99.90;;;;;;4986572;28;20451;-81
2021/04/05 04:11:34;;;;;;;7.63;5.10;;;3.30;99.90;;;;;;4991990;28;20455;-81
2021/04/05 04:14:04;;;;;;;8.33;5.43;;;3.30;99.90;;;;;;4975750;28;20451;-82
2021/04/05 04:16:31;;;;;;;5.80;4.80;;;3.30;99.90;;;;;;4973810;28;20452;-82
2021/04/05 04:19:01;;;;;;;8.23;5.70;;;3.20;99.90;;;;;;4977775;28;20448;-82
2021/04/05 04:21:27;;;;;;;9.57;6.20;;;3.10;99.90;;;;;;4992057;28;20535;-82
2021/04/05 04:23:55;;;;;;;7.53;5.30;;;3.10;99.90;;;;;;4973827;28;20575;-82
2021/04/05 04:26:21;;;;;;;6.50;5.27;;;3.00;99.90;;;;;;4975368;28;20450;-81
2021/04/05 04:28:46;;;;;;;11.60;5.30;;;3.00;99.90;;;;;;4976058;28;20459;-82
2021/04/05 04:31:12;;;;;;;6.10;4.63;;;3.00;99.90;;;;;;4972521;28;20232;-82
2021/04/05 04:33:38;;;;;;;7.10;5.20;;;3.00;99.90;;;;;;4973993;28;20246;-82
2021/04/05 04:36:06;;;;;;;7.10;5.30;;;2.90;99.90;;;;;;4970946;28;20473;-82
2021/04/05 04:38:33;;;;;;;5.60;4.90;;;3.00;99.90;;;;;;4978981;28;20221;-82
2021/04/05 04:40:58;;;;;;;7.70;4.97;;;3.00;99.90;;;;;;4962634;28;20485;-82
2021/04/05 04:43:26;;;;;;;7.23;5.40;;;3.00;99.90;;;;;;4984817;28;20559;-82
2021/04/05 04:45:52;;;;;;;5.53;4.70;;;3.00;99.90;;;;;;4987898;28;20223;-83
2021/04/05 04:48:17;;;;;;;6.50;4.90;;;3.00;99.90;;;;;;4992017;28;20536;-83
2021/04/05 04:50:44;;;;;;;13.43;5.80;;;3.10;99.90;;;;;;4991120;28;20236;-83
2021/04/05 04:53:09;;;;;;;6.37;5.00;;;3.10;99.90;;;;;;4995729;28;20189;-83
2021/04/05 04:55:36;;;;;;;8.23;5.03;;;3.10;99.90;;;;;;4978785;28;21065;-83
2021/04/05 04:58:03;;;;;;;7.37;4.50;;;3.10;99.90;;;;;;4987598;28;20183;-83
2021/04/05 05:00:31;;;;;;;6.53;5.20;;;3.10;99.90;;;;;;5000674;28;20448;-82
2021/04/05 05:02:57;;;;;;;7.80;5.17;;;3.10;99.90;;;;;;4969062;28;20805;-82
2021/04/05 05:05:27;;;;;;;9.27;5.20;;;3.10;99.90;;;;;;4978921;28;20535;-82
2021/04/05 05:07:54;;;;;;;7.83;5.20;;;3.10;99.90;;;;;;4992893;28;20454;-83
2021/04/05 05:10:21;;;;;;;7.73;5.10;;;3.20;99.90;;;;;;4970976;28;20614;-82
2021/04/05 05:12:49;;;;;;;7.80;5.03;;;3.20;99.90;;;;;;4988897;28;20451;-83
2021/04/05 05:15:15;;;;;;;8.67;4.97;;;3.20;99.90;;;;;;4971046;28;20946;-82
2021/04/05 05:17:43;;;;;;;6.30;4.93;;;3.20;99.90;;;;;;4980314;28;20186;-82
2021/04/05 05:20:10;;;;;;;8.27;4.77;;;3.10;99.90;;;;;;4977334;28;20458;-82
2021/04/05 05:22:46;;;;;;;5.77;4.83;;;3.10;99.90;;;;;;4986280;28;20490;-83
2021/04/05 05:25:20;;;;;;;9.07;4.97;;;3.20;99.90;;;;;;4972909;28;21035;-82
2021/04/05 05:28:02;;;;;;;10.00;5.50;;;3.20;99.90;;;;;;4986294;28;20459;-82
2021/04/05 05:30:28;;;;;;;7.37;5.37;;;3.20;99.90;;;;;;4996814;28;20945;-82
2021/04/05 05:32:55;;;;;;;7.40;4.53;;;3.20;99.90;;;;;;4992509;28;20514;-83
2021/04/05 05:35:23;;;;;;;7.20;4.80;;;3.30;99.90;;;;;;4989830;28;20488;-82
2021/04/05 05:37:50;;;;;;;10.23;4.70;;;3.40;99.90;;;;;;4992721;28;20953;-82
2021/04/05 05:40:21;;;;;;;5.83;4.80;;;3.50;99.90;;;;;;4986141;28;20448;-82
2021/04/05 05:43:26;;;;;;;6.53;4.20;;;3.60;99.90;;;;;;4978646;28;20463;-82
2021/04/05 05:46:04;;;;;;;6.60;4.00;;;3.80;99.90;;;;;;4990276;28;20435;-82
2021/04/05 05:49:11;;;;;;;6.40;4.10;;;3.80;99.90;;;;;;4976602;28;20974;-82
2021/04/05 05:51:45;;;;;;;8.97;4.23;;;3.90;99.90;;;;;;4994641;28;20885;-82
2021/04/05 05:54:36;;;;;;;9.00;4.33;;;4.20;99.90;;;;;;4991167;28;20454;-82
2021/04/05 05:57:39;;;;;;;6.17;4.47;;;4.30;99.90;;;;;;4976167;28;20456;-82
2021/04/05 06:00:20;;;;;;;5.57;3.70;;;4.40;99.90;;;;;;4968524;28;23592;-81
2021/04/05 06:03:13;;;;;;;5.37;4.50;;;4.60;99.90;;;;;;4992214;28;20442;-82
2021/04/05 06:05:55;;;;;;;6.17;4.10;;;4.70;99.90;;;;;;4991948;28;20456;-82
2021/04/05 06:08:48;;;;;;;4.67;4.20;;;5.00;99.90;;;;;;4972583;28;20508;-83
2021/04/05 06:11:35;;;;;;;6.07;3.90;;;5.10;99.90;;;;;;4970248;28;21088;-82
2021/04/05 06:14:08;;;;;;;6.63;3.93;;;5.30;99.90;;;;;;4979398;28;20564;-83
2021/04/05 06:16:34;;;;;;;5.87;4.23;;;5.40;99.60;;;;;;4991411;28;21817;-82
2021/04/05 06:18:59;;;;;;;4.97;3.83;;;5.50;99.40;;;;;;4995249;28;20561;-82
2021/04/05 06:21:40;;;;;;;6.00;3.87;;;5.60;99.30;;;;;;4972577;28;20189;-83
2021/04/05 06:24:15;;;;;;;6.77;4.20;;;5.60;99.10;;;;;;4996257;28;20179;-83
2021/04/05 06:26:54;;;;;;;6.03;4.40;;;5.60;98.90;;;;;;4990251;28;20448;-82
2021/04/05 06:29:54;;;;;;;7.70;4.80;;;5.70;99.10;;;;;;4967329;28;20964;-83
2021/04/05 06:32:33;;;;;;;5.87;4.60;;;5.80;99.10;;;;;;4990919;28;20450;-83
2021/04/05 06:35:30;;;;;;;7.17;4.67;;;6.00;99.20;;;;;;4994368;28;20472;-82
2021/04/05 06:38:03;;;;;;;5.80;4.60;;;6.10;98.70;;;;;;4978956;28;20476;-84
2021/04/05 06:40:35;;;;;;;6.30;4.40;;;6.30;98.60;;;;;;4983645;28;20433;-83
2021/04/05 06:43:27;;;;;;;4.77;3.87;;;6.50;98.10;;;;;;4962721;28;20445;-82
2021/04/05 06:45:55;;;;;;;7.07;3.77;;;6.70;97.70;;;;;;4989674;28;20452;-83
2021/04/05 06:48:24;;;;;;;5.93;3.53;;;6.90;97.30;;;;;;4990799;28;20848;-84
2021/04/05 06:51:00;;;;;;;6.20;3.83;;;7.10;96.70;;;;;;4989948;28;20444;-83
2021/04/05 06:54:08;;;;;;;6.47;3.40;;;7.20;96.20;;;;;;4976267;28;20790;-82
2021/04/05 06:56:53;;;;;;;7.50;3.10;;;7.20;96.10;;;;;;4966304;28;20472;-82
2021/04/05 06:59:48;;;;;;;9.43;3.70;;;7.30;95.70;;;;;;4989370;28;20993;-82
2021/04/05 07:02:20;;;;;;;6.63;3.50;;;7.50;95.40;;;;;;4977466;28;20531;-82
2021/04/05 07:05:11;;;;;;;5.70;3.53;;;7.60;95.30;;;;;;4978170;28;20436;-82
2021/04/05 07:08:00;;;;;;;4.80;4.03;;;7.60;95.00;;;;;;4987514;28;20445;-83
2021/04/05 07:10:30;;;;;;;6.57;3.73;;;7.70;94.50;;;;;;4993393;28;20436;-83
2021/04/05 07:13:07;;;;;;;9.00;3.70;;;7.90;93.50;;;;;;4986836;28;21215;-83
2021/04/05 07:15:48;;;;;;;3.70;3.40;;;8.00;93.00;;;;;;4977347;28;20480;-83
2021/04/05 07:18:32;;;;;;;6.70;3.63;;;8.00;92.80;;;;;;4975429;28;20955;-82
2021/04/05 07:21:27;;;;;;;7.13;3.80;;;8.10;92.80;;;;;;4991967;28;20534;-82
2021/04/05 07:24:14;;;;;;;6.20;3.33;;;8.20;92.60;;;;;;4974052;28;20782;-84
2021/04/05 07:26:53;;;;;;;4.67;3.50;;;8.20;92.60;;;;;;4989683;28;20466;-83
2021/04/05 07:29:35;;;;;;;5.97;3.50;;;8.30;92.20;;;;;;4979822;28;20911;-83
2021/04/05 07:32:22;;;;;;;4.67;3.87;;;8.40;92.40;;;;;;4960776;28;20459;-84
2021/04/05 07:34:53;;;;;;;5.50;3.90;;;8.40;92.50;;;;;;4993629;28;20507;-84
2021/04/05 07:38:18;;;;;;;4.50;3.53;;;8.50;92.40;;;;;;4990296;28;20789;-88
2021/04/05 07:41:05;;;;;;;7.50;3.80;;;8.70;92.10;;;;;;4980280;28;20974;-84
2021/04/05 07:43:43;;;;;;;8.33;3.73;;;8.80;91.70;;;;;;4967623;28;21878;-84
2021/04/05 07:46:18;;;;;;;6.50;3.73;;;9.10;91.60;;;;;;4983247;28;20460;-83
2021/04/05 07:49:19;;;;;;;6.63;4.23;;;9.10;90.50;;;;;;4983656;28;20445;-82
2021/04/05 07:51:52;;;;;;;5.10;3.50;;;9.20;90.40;;;;;;4969807;28;20454;-82
2021/04/05 07:54:21;;;;;;;5.77;3.83;;;9.30;90.30;;;;;;4964760;28;20436;-82
2021/04/05 07:56:46;;;;;;;4.47;3.70;;;9.60;89.40;;;;;;4981766;28;20543;-83
2021/04/05 07:59:18;;;;;;;10.07;3.60;;;10.00;86.60;;;;;;4980810;28;20447;-82
2021/04/05 08:01:47;;;;;;;7.77;4.30;;;10.20;84.40;;;;;;4984882;28;21413;-82
2021/04/05 08:04:24;;;;;;;10.37;4.10;;;10.30;82.60;;;;;;4978698;28;20451;-81
2021/04/05 08:07:23;;;;;;;8.47;3.87;;;10.20;81.60;;;;;;4981319;28;20455;-82
2021/04/05 08:10:07;;;;;;;4.57;3.47;;;10.30;82.20;;;;;;4968827;28;20543;-81
2021/04/05 08:12:50;;;;;;;7.83;4.30;;;10.20;82.00;;;;;;4983775;28;20456;-83
2021/04/05 08:15:20;;;;;;;6.83;3.90;;;10.30;83.50;;;;;;4984323;28;20480;-83
2021/04/05 08:17:53;;;;;;;9.13;3.43;;;10.50;82.20;;;;;;4969493;28;20779;-83
2021/04/05 08:20:42;;;;;;;10.50;3.77;;;10.70;81.90;;;;;;4964000;28;20455;-82
2021/04/05 08:23:48;;;;;;;6.70;3.60;;;11.00;79.70;;;;;;4965615;28;20821;-82
2021/04/05 08:26:32;;;;;;;5.93;3.87;;;11.30;79.10;;;;;;4963602;28;21082;-82
2021/04/05 08:29:04;;;;;;;7.80;3.80;;;11.50;79.30;;;;;;4963967;28;20455;-82
2021/04/05 08:31:55;;;;;;;5.50;4.30;;;11.50;77.90;;;;;;4970015;28;20494;-81
2021/04/05 08:34:43;;;;;;;6.00;4.30;;;11.80;77.20;;;;;;4984576;28;21594;-80
2021/04/05 08:37:42;;;;;;;8.03;4.00;;;11.90;77.40;;;;;;4968666;28;20502;-81
2021/04/05 08:40:14;;;;;;;9.80;4.20;;;11.90;78.30;;;;;;4967568;28;20961;-80
2021/04/05 08:42:52;;;;;;;5.40;3.00;;;11.70;75.40;;;;;;4986619;28;20510;-80
2021/04/05 08:45:38;;;;;;;6.87;3.90;;;11.70;77.10;;;;;;4982261;28;20485;-81
2021/04/05 08:48:07;;;;;;;13.03;4.13;;;11.90;76.20;;;;;;4985810;28;20627;-81
2021/04/05 08:50:38;;;;;;;6.80;4.07;;;11.90;75.00;;;;;;4984154;28;20455;-81
2021/04/05 08:53:04;;;;;;;4.30;3.23;;;11.90;73.10;;;;;;4981196;28;20462;-81
2021/04/05 08:55:32;;;;;;;7.33;3.70;;;11.80;74.10;;;;;;4962484;28;20814;-79
2021/04/05 08:58:12;;;;;;;7.37;3.13;;;11.90;72.00;;;;;;4969501;28;20670;-81
2021/04/05 09:00:43;;;;;;;3.97;2.60;;;11.80;71.30;;;;;;4962357;28;20475;-80
2021/04/05 09:03:11;;;;;;;12.80;3.43;;;11.90;70.40;;;;;;4977306;28;20466;-80
2021/04/05 09:05:43;;;;;;;8.30;3.20;;;11.80;69.70;;;;;;4985994;28;20449;-80
2021/04/05 09:08:11;;;;;;;4.30;2.80;;;11.90;72.90;;;;;;4972291;28;20450;-80
2021/04/05 09:10:47;;;;;;;5.83;3.40;;;12.00;73.80;;;;;;4969903;28;20455;-80
2021/04/05 09:13:21;;;;;;;6.00;3.93;;;12.50;74.50;;;;;;5001424;28;20435;-81
2021/04/05 09:16:31;;;;;;;5.80;2.97;;;12.60;70.80;;;;;;4964801;28;20480;-81
2021/04/05 09:19:16;;;;;;;7.00;3.80;;;12.60;71.10;;;;;;4977844;28;20892;-80
2021/04/05 09:22:22;;;;;;;4.63;2.83;;;12.50;68.20;;;;;;4962597;28;20455;-80
2021/04/05 09:24:57;;;;;;;5.87;2.60;;;12.10;68.20;;;;;;4986688;28;20439;-80
2021/04/05 09:27:32;;;;;;;7.10;2.87;;;12.30;68.40;;;;;;4967388;28;20525;-80
2021/04/05 09:30:29;;;;;;;4.90;2.50;;;12.10;64.60;;;;;;4986358;28;20453;-80
2021/04/05 09:33:19;;;;;;;3.77;1.70;;;12.20;65.70;;;;;;4986119;28;20456;-80
2021/04/05 09:36:08;;;;;;;10.43;2.87;;;12.00;63.80;;;;;;4985578;28;20570;-81
2021/04/05 09:39:17;;;;;;;4.60;2.87;;;12.00;65.50;;;;;;4932437;28;20485;-80
2021/04/05 09:42:08;;;;;;;5.50;3.33;;;11.70;63.60;;;;;;4984680;28;20478;-80
2021/04/05 09:45:01;;;;;;;3.70;2.43;;;11.60;64.70;;;;;;4992127;28;20539;-80
2021/04/05 09:47:27;;;;;;;6.30;2.70;;;11.50;64.70;;;;;;4996055;28;20474;-80
2021/04/05 09:50:07;;;;;;;5.03;2.97;;;11.50;66.10;;;;;;4999620;28;20467;-83
2021/04/05 09:52:48;;;;;;;5.97;3.47;;;11.50;62.70;;;;;;4971773;28;20271;-81
2021/04/05 09:55:16;;;;;;;6.40;2.87;;;11.40;60.10;;;;;;4971767;28;20525;-81
2021/04/05 09:57:49;;;;;;;3.83;2.90;;;11.70;60.80;;;;;;4970995;28;20450;-82
2021/04/05 10:00:17;;;;;;;6.93;3.20;;;11.50;58.30;;;;;;4988907;28;20450;-81
2021/04/05 10:02:48;;;;;;;5.40;2.77;;;11.60;57.00;;;;;;4985812;28;20497;-79
2021/04/05 10:05:16;;;;;;;5.10;2.93;;;11.60;57.60;;;;;;4970141;28;20807;-81
2021/04/05 10:07:44;;;;;;;6.83;3.33;;;11.70;59.70;;;;;;4989515;28;20530;-81
2021/04/05 10:10:12;;;;;;;6.23;3.30;;;11.80;61.40;;;;;;4988730;28;20545;-82
2021/04/05 10:12:40;;;;;;;4.83;3.37;;;11.60;60.30;;;;;;4973505;28;20447;-79
2021/04/05 10:15:07;;;;;;;10.23;3.43;;;11.50;61.60;;;;;;4983790;28;20723;-81
2021/04/05 10:17:34;;;;;;;9.53;3.23;;;11.10;63.10;;;;;;4988035;28;20443;-80
2021/04/05 10:20:05;;;;;;;8.03;3.50;;;11.20;64.30;;;;;;4986475;28;21157;-80
2021/04/05 10:22:43;;;;;;;4.90;3.40;;;11.40;65.40;;;;;;4988342;28;20435;-81
2021/04/05 10:25:09;;;;;;;5.80;3.27;;;11.50;65.20;;;;;;4986746;28;20464;-81
2021/04/05 10:27:36;;;;;;;7.00;3.80;;;11.50;63.80;;;;;;4969920;28;20451;-81
2021/04/05 10:30:04;;;;;;;6.87;3.70;;;11.40;64.30;;;;;;4985753;28;20802;-81
2021/04/05 10:32:29;;;;;;;5.50;3.40;;;11.10;64.60;;;;;;4986999;28;20439;-83
2021/04/05 10:34:58;;;;;;;6.90;3.83;;;11.00;65.80;;;;;;4983986;28;20484;-81
2021/04/05 10:37:32;;;;;;;4.20;3.63;;;11.20;65.90;;;;;;4979508;28;20217;-81
2021/04/05 10:40:01;;;;;;;8.77;3.63;;;11.10;66.60;;;;;;4986096;28;20481;-84
2021/04/05 10:42:33;;;;;;;6.40;3.80;;;11.10;67.10;;;;;;4982269;28;20493;-84
2021/04/05 10:45:18;;;;;;;6.37;3.87;;;11.10;66.50;;;;;;4960004;28;20456;-83
2021/04/05 10:47:54;;;;;;;6.40;3.67;;;11.20;67.30;;;;;;4984021;28;20759;-81
2021/04/05 10:50:26;;;;;;;7.20;3.20;;;11.30;67.10;;;;;;4960985;28;20456;-81
2021/04/05 10:52:54;;;;;;;7.53;4.43;;;11.30;66.90;;;;;;4968704;28;20446;-81
2021/04/05 10:55:25;;;;;;;7.33;3.40;;;11.40;67.30;;;;;;4983460;28;20493;-81
2021/04/05 10:58:00;;;;;;;5.00;3.60;;;11.20;67.00;;;;;;4984039;28;20463;-81
2021/04/05 11:00:36;;;;;;;8.57;4.07;;;11.10;68.60;;;;;;4982450;28;20488;-83
2021/04/05 11:03:17;;;;;;;6.23;3.67;;;11.30;68.40;;;;;;4968694;28;20450;-82
2021/04/05 11:05:49;;;;;;;6.80;4.60;;;11.10;67.60;;;;;;4970782;28;20448;-82
2021/04/05 11:08:20;;;;;;;9.97;3.47;;;11.30;68.70;;;;;;4971977;28;20453;-83
2021/04/05 11:10:47;;;;;;;3.93;3.53;;;11.30;65.80;;;;;;4985646;28;20990;-83
2021/04/05 11:13:18;;;;;;;5.93;4.27;;;11.50;65.50;;;;;;4986676;28;20469;-83
2021/04/05 11:15:46;;;;;;;5.87;3.97;;;11.30;64.70;;;;;;4974063;28;20904;-81
2021/04/05 11:18:14;;;;;;;5.80;3.50;;;11.30;65.00;;;;;;4975269;28;20931;-82
2021/04/05 11:20:41;;;;;;;3.87;2.90;;;11.10;63.70;;;;;;4988131;28;20453;-82
2021/04/05 11:23:19;;;;;;;4.70;3.70;;;11.00;62.70;;;;;;4986415;28;20456;-82
2021/04/05 11:25:48;;;;;;;6.73;3.67;;;11.10;62.40;;;;;;4977541;28;20469;-83
2021/04/05 11:28:37;;;;;;;4.23;3.23;;;11.20;62.50;;;;;;4970592;28;20488;-83
2021/04/05 11:31:13;;;;;;;6.07;3.00;;;11.30;62.70;;;;;;4972399;28;20814;-82
2021/04/05 11:33:57;;;;;;;5.67;4.07;;;11.40;63.10;;;;;;4966691;28;20448;-83
2021/04/05 11:36:59;;;;;;;5.80;3.97;;;11.50;64.00;;;;;;4971637;28;20589;-83
2021/04/05 11:39:34;;;;;;;4.80;3.40;;;11.60;63.20;;;;;;4985353;28;20447;-83
2021/04/05 11:42:09;;;;;;;6.90;3.87;;;11.60;61.70;;;;;;4981915;28;20443;-84
2021/04/05 11:44:45;;;;;;;10.20;4.10;;;11.70;62.40;;;;;;4955623;28;20760;-84
2021/04/05 11:47:11;;;;;;;6.37;4.13;;;11.80;63.30;;;;;;4958348;28;20448;-84
2021/04/05 11:49:37;;;;;;;4.63;3.13;;;12.00;64.50;;;;;;4961885;28;20463;-85
2021/04/05 11:52:19;;;;;;;4.27;3.17;;;12.20;62.30;;;;;;4982389;28;20751;-82
2021/04/05 11:55:03;;;;;;;3.80;2.80;;;12.30;59.70;;;;;;4982994;28;20213;-84
2021/04/05 11:57:36;;;;;;;4.43;2.63;;;12.40;57.60;;;;;;4970438;28;20578;-83
2021/04/05 12:00:05;;;;;;;6.73;3.43;;;12.20;55.80;;;;;;4973214;28;20947;-83
2021/04/05 12:02:40;;;;;;;5.03;2.90;;;12.10;53.90;;;;;;4958972;28;20440;-82
2021/04/05 12:05:11;;;;;;;4.47;2.50;;;12.00;53.90;;;;;;4966503;28;21197;-82
2021/04/05 12:07:44;;;;;;;5.93;3.30;;;12.00;54.30;;;;;;4980428;28;20439;-83
2021/04/05 12:10:18;;;;;;;5.03;3.00;;;12.30;54.40;;;;;;4982385;28;20495;-84
2021/04/05 12:12:57;;;;;;;3.80;2.87;;;12.30;53.60;;;;;;4978971;28;20735;-83
2021/04/05 12:15:23;;;;;;;6.97;3.17;;;12.50;52.60;;;;;;4966653;28;20484;-82
2021/04/05 12:17:58;;;;;;;4.10;2.80;;;12.60;52.20;;;;;;4958896;28;20452;-83
2021/04/05 12:20:27;;;;;;;5.13;3.50;;;12.60;52.30;;;;;;4969206;28;20462;-84
2021/04/05 12:22:54;;;;;;;6.93;3.60;;;12.50;53.10;;;;;;4979607;28;20948;-83
2021/04/05 12:25:51;;;;;;;5.20;3.87;;;12.30;53.30;;;;;;4997702;28;20789;-83
2021/04/05 12:28:17;;;;;;;10.20;5.23;;;12.30;54.60;;;;;;4965314;28;20472;-83
2021/04/05 12:30:46;;;;;;;7.33;4.40;;;12.10;54.90;;;;;;4968839;28;20803;-85
2021/04/05 12:33:15;;;;;;;10.27;4.50;;;12.20;54.70;;;;;;4989007;28;20541;-82
2021/04/05 12:35:43;;;;;;;6.97;4.40;;;12.10;55.90;;;;;;4972323;28;20531;-83
2021/04/05 12:38:11;;;;;;;8.43;4.20;;;12.20;56.30;;;;;;4981655;28;20848;-83
2021/04/05 12:40:39;;;;;;;7.93;4.67;;;12.30;57.40;;;;;;4986252;28;20463;-84
2021/04/05 12:43:16;;;;;;;8.93;4.57;;;12.20;57.40;;;;;;4986457;28;20785;-84
2021/04/05 12:45:51;;;;;;;6.43;4.20;;;12.00;58.50;;;;;;4953327;28;20460;-83
2021/04/05 12:48:25;;;;;;;10.63;5.10;;;11.80;58.50;;;;;;4967990;28;21456;-83
2021/04/05 12:51:05;;;;;;;9.20;4.70;;;11.80;58.00;;;;;;4964159;28;20459;-82
2021/04/05 12:53:32;;;;;;;6.50;5.00;;;11.70;58.10;;;;;;4968661;28;20452;-82
2021/04/05 12:55:59;;;;;;;5.83;4.07;;;11.60;57.90;;;;;;4970691;28;20482;-83
2021/04/05 12:58:35;;;;;;;7.73;5.10;;;11.60;59.00;;;;;;4969615;28;20453;-83
2021/04/05 13:01:03;;;;;;;9.67;5.50;;;11.60;59.80;;;;;;4968456;28;20510;-83
2021/04/05 13:03:48;;;;;;;9.43;5.57;;;11.50;60.90;;;;;;4966283;28;20439;-84
2021/04/05 13:06:21;;;;;;;12.80;5.50;;;11.40;60.40;;;;;;4968066;28;20510;-84
2021/04/05 13:09:12;;;;;;;12.93;6.50;;;11.20;61.10;;;;;;4982410;28;20829;-85
2021/04/05 13:11:56;;;;;;;8.13;5.70;;;11.20;62.30;;;;;;4977115;28;20881;-85
2021/04/05 13:14:30;;;;;;;9.63;5.70;;;11.10;63.00;;;;;;4958246;28;20461;-84
2021/04/05 13:17:09;;;;;;;8.33;6.00;;;11.10;63.90;;;;;;4983335;28;20535;-84
2021/04/05 13:19:48;;;;;;;11.30;5.70;;;11.10;65.10;;;;;;4970162;28;20503;-84
2021/04/05 13:22:16;;;;;;;11.00;6.10;;;11.00;63.90;;;;;;4968030;28;20448;-85
2021/04/05 13:24:49;;;;;;;12.40;5.97;;;11.00;65.00;;;;;;4964877;28;20545;-84
2021/04/05 13:27:23;;;;;;;13.87;6.47;;;10.90;64.80;;;;;;4961019;28;20468;-84